createdAt,value
2022-10-16T00:01:12.869Z,2.67
2022-10-16T00:03:40.608Z,2.60
2022-10-16T00:06:08.467Z,2.70
2022-10-16T00:08:36.410Z,2.60
2022-10-16T00:11:04.880Z,2.60
2022-10-16T00:13:34.224Z,2.60
2022-10-16T00:16:03.508Z,2.90
2022-10-16T00:18:31.861Z,2.40
2022-10-16T00:21:03.805Z,2.55
2022-10-16T00:23:31.564Z,2.45
2022-10-16T00:25:59.783Z,2.67
2022-10-16T00:28:27.548Z,2.85
2022-10-16T00:30:56.730Z,2.80
2022-10-16T00:33:24.654Z,2.75
2022-10-16T00:35:52.435Z,2.65
2022-10-16T00:38:20.155Z,2.70
2022-10-16T00:40:47.946Z,2.60
2022-10-16T00:43:16.340Z,2.50
2022-10-16T00:45:44.031Z,2.40
2022-10-16T00:48:14.660Z,2.60
2022-10-16T00:50:44.280Z,2.42
2022-10-16T00:53:13.018Z,2.58
2022-10-16T00:55:42.500Z,2.47
2022-10-16T00:58:10.504Z,2.95
2022-10-16T01:00:38.200Z,2.58
2022-10-16T01:03:26.353Z,2.65
2022-10-16T01:05:59.321Z,2.55
2022-10-16T01:08:29.346Z,2.40
2022-10-16T01:10:59.470Z,2.70
2022-10-16T01:13:29.376Z,2.20
2022-10-16T01:15:58.643Z,2.25
2022-10-16T01:18:30.958Z,2.85
2022-10-16T01:21:00.892Z,2.38
2022-10-16T01:23:34.841Z,2.50
2022-10-16T01:26:16.530Z,2.30
2022-10-16T01:28:48.193Z,2.40
2022-10-16T01:31:17.006Z,2.25
2022-10-16T01:33:45.757Z,2.10
2022-10-16T01:36:15.380Z,2.20
2022-10-16T01:38:43.069Z,2.13
2022-10-16T01:41:12.283Z,2.10
2022-10-16T01:43:41.109Z,2.45
2022-10-16T01:46:10.155Z,2.20
2022-10-16T01:48:37.807Z,2.28
2022-10-16T01:51:07.825Z,1.80
2022-10-16T01:53:35.589Z,2.00
2022-10-16T01:56:03.561Z,2.30
2022-10-16T01:58:34.949Z,2.22
2022-10-16T02:01:03.477Z,1.88
2022-10-16T02:03:33.237Z,1.90
2022-10-16T02:06:00.930Z,1.70
2022-10-16T02:08:29.963Z,1.80
2022-10-16T02:10:57.822Z,1.83
2022-10-16T02:13:27.952Z,1.60
2022-10-16T02:15:55.730Z,1.70
2022-10-16T02:18:23.444Z,2.22
2022-10-16T02:20:54.661Z,1.50
2022-10-16T02:23:26.790Z,1.70
2022-10-16T02:25:54.753Z,1.50
2022-10-16T02:28:25.851Z,1.60
2022-10-16T02:30:54.626Z,1.50
2022-10-16T02:33:22.304Z,1.80
2022-10-16T02:35:49.981Z,1.60
2022-10-16T02:38:19.076Z,1.50
2022-10-16T02:40:46.807Z,2.35
2022-10-16T02:43:14.475Z,1.40
2022-10-16T02:45:42.164Z,1.85
2022-10-16T02:48:09.858Z,1.20
2022-10-16T02:50:37.529Z,1.50
2022-10-16T02:53:05.195Z,1.30
2022-10-16T02:55:34.219Z,1.73
2022-10-16T02:58:01.881Z,1.90
2022-10-16T03:00:29.710Z,1.73
2022-10-16T03:02:57.432Z,1.90
2022-10-16T03:05:25.127Z,1.30
2022-10-16T03:07:53.511Z,1.20
2022-10-16T03:10:21.173Z,1.88
2022-10-16T03:12:50.266Z,1.10
2022-10-16T03:15:18.049Z,1.27
2022-10-16T03:17:45.704Z,1.35
2022-10-16T03:20:13.491Z,1.40
2022-10-16T03:22:41.164Z,1.35
2022-10-16T03:25:09.611Z,1.50
2022-10-16T03:27:37.277Z,1.15
2022-10-16T03:30:07.187Z,1.38
2022-10-16T03:35:03.585Z,1.10
2022-10-16T03:37:31.257Z,2.58
2022-10-16T03:39:58.944Z,1.98
2022-10-16T03:42:26.632Z,1.00
2022-10-16T03:44:54.376Z,1.33
2022-10-16T03:47:24.928Z,0.82
2022-10-16T03:49:52.895Z,1.40
2022-10-16T03:52:20.643Z,1.80
2022-10-16T03:54:48.400Z,1.30
2022-10-16T03:57:16.103Z,1.35
2022-10-16T03:59:43.806Z,1.08
2022-10-16T04:02:11.527Z,1.70
2022-10-16T04:04:40.531Z,1.73
2022-10-16T04:07:08.209Z,1.80
2022-10-16T04:09:35.871Z,1.75
2022-10-16T04:12:03.569Z,2.17
2022-10-16T04:14:31.448Z,1.25
2022-10-16T04:16:59.099Z,1.70
2022-10-16T04:19:27.348Z,1.80
2022-10-16T04:21:57.232Z,1.00
2022-10-16T04:24:25.054Z,2.00
2022-10-16T04:26:52.716Z,1.10
2022-10-16T04:29:20.440Z,1.50
2022-10-16T04:31:48.654Z,2.65
2022-10-16T04:34:16.323Z,1.23
2022-10-16T04:36:43.988Z,1.13
2022-10-16T04:39:12.980Z,1.13
2022-10-16T04:41:40.812Z,1.58
2022-10-16T04:44:08.441Z,1.13
2022-10-16T04:46:36.102Z,0.90
2022-10-16T04:49:03.805Z,1.15
2022-10-16T04:51:31.499Z,1.10
2022-10-16T04:53:59.174Z,1.23
2022-10-16T04:56:28.168Z,1.67
2022-10-16T04:58:55.821Z,1.88
2022-10-16T05:01:23.465Z,1.63
2022-10-16T05:03:51.168Z,1.15
2022-10-16T05:06:18.867Z,2.40
2022-10-16T05:08:46.559Z,0.80
2022-10-16T05:11:14.214Z,2.03
2022-10-16T05:13:43.232Z,1.40
2022-10-16T05:16:10.873Z,0.80
2022-10-16T05:18:38.538Z,1.10
2022-10-16T05:21:06.729Z,0.98
2022-10-16T05:23:35.396Z,0.80
2022-10-16T05:26:03.072Z,0.85
2022-10-16T05:28:31.384Z,1.25
2022-10-16T05:31:01.418Z,0.90
2022-10-16T05:33:29.050Z,1.55
2022-10-16T05:35:56.735Z,1.02
2022-10-16T05:38:24.425Z,1.10
2022-10-16T05:40:55.048Z,0.80
2022-10-16T05:43:22.745Z,1.08
2022-10-16T05:45:56.711Z,0.80
2022-10-16T05:48:25.778Z,1.33
2022-10-16T05:50:59.163Z,1.77
2022-10-16T05:53:27.311Z,2.58
2022-10-16T05:55:55.490Z,1.10
2022-10-16T05:58:23.270Z,1.42
2022-10-16T06:00:57.404Z,0.90
2022-10-16T06:03:39.829Z,1.45
2022-10-16T06:06:12.402Z,0.82
2022-10-16T06:08:40.652Z,1.52
2022-10-16T06:11:08.947Z,2.05
2022-10-16T06:13:36.643Z,1.35
2022-10-16T06:16:04.968Z,2.35
2022-10-16T06:18:33.958Z,1.05
2022-10-16T06:21:01.584Z,0.95
2022-10-16T06:23:30.383Z,1.98
2022-10-16T06:26:06.562Z,1.77
2022-10-16T06:28:34.711Z,1.42
2022-10-16T06:31:05.612Z,1.20
2022-10-16T06:33:37.247Z,1.27
2022-10-16T06:36:05.282Z,1.75
2022-10-16T06:38:33.087Z,1.63
2022-10-16T06:41:00.790Z,1.02
2022-10-16T06:43:30.904Z,1.08
2022-10-16T06:45:58.830Z,1.77
2022-10-16T06:48:26.590Z,1.35
2022-10-16T06:50:59.436Z,1.42
2022-10-16T06:53:27.664Z,1.33
2022-10-16T06:55:55.355Z,1.02
2022-10-16T06:58:23.019Z,0.88
2022-10-16T07:00:50.772Z,1.45
2022-10-16T07:03:18.415Z,1.25
2022-10-16T07:05:46.257Z,1.58
2022-10-16T07:08:15.243Z,1.20
2022-10-16T07:10:42.888Z,1.00
2022-10-16T07:13:13.979Z,2.22
2022-10-16T07:15:41.755Z,1.85
2022-10-16T07:18:09.528Z,4.82
2022-10-16T07:20:38.303Z,1.42
2022-10-16T07:23:05.973Z,1.27
2022-10-16T07:25:34.964Z,1.25
2022-10-16T07:28:02.610Z,1.80
2022-10-16T07:30:30.228Z,2.35
2022-10-16T07:32:57.851Z,1.85
2022-10-16T07:35:25.513Z,1.52
2022-10-16T07:37:53.205Z,1.00
2022-10-16T07:40:20.909Z,1.33
2022-10-16T07:42:49.923Z,1.10
2022-10-16T07:45:17.566Z,1.95
2022-10-16T07:47:45.230Z,1.33
2022-10-16T07:50:12.863Z,1.10
2022-10-16T07:52:40.549Z,0.90
2022-10-16T07:55:08.982Z,1.50
2022-10-16T07:57:36.660Z,1.05
2022-10-16T08:00:06.713Z,1.25
2022-10-16T08:02:40.051Z,2.10
2022-10-16T08:05:08.569Z,1.40
2022-10-16T08:07:36.197Z,1.30
2022-10-16T08:10:04.016Z,1.50
2022-10-16T08:12:31.646Z,1.55
2022-10-16T08:14:59.327Z,1.45
2022-10-16T08:17:28.767Z,1.38
2022-10-16T08:19:56.754Z,1.55
2022-10-16T08:22:24.464Z,1.55
2022-10-16T08:24:52.175Z,6.43
2022-10-16T08:27:19.860Z,6.72
2022-10-16T08:29:47.556Z,6.88
2022-10-16T08:32:15.221Z,4.95
2022-10-16T08:34:44.237Z,5.35
2022-10-16T08:37:12.188Z,18.75
2022-10-16T08:39:40.007Z,8.80
2022-10-16T08:42:17.306Z,11.00
2022-10-16T08:45:11.014Z,6.55
2022-10-16T08:47:47.691Z,14.60
2022-10-16T08:50:19.520Z,9.77
2022-10-16T08:52:47.611Z,7.35
2022-10-16T08:55:21.599Z,10.63
2022-10-16T08:57:49.245Z,6.07
2022-10-16T09:00:17.383Z,7.05
2022-10-16T09:02:47.383Z,4.95
2022-10-16T09:05:39.952Z,5.30
2022-10-16T09:08:13.265Z,5.65
2022-10-16T09:10:46.202Z,6.05
2022-10-16T09:13:20.208Z,8.32
2022-10-16T09:15:50.149Z,8.07
2022-10-16T09:18:20.660Z,5.18
2022-10-16T09:20:53.096Z,3.38
2022-10-16T09:23:21.728Z,5.07
2022-10-16T09:25:50.735Z,3.13
2022-10-16T09:28:19.751Z,3.05
2022-10-16T09:30:49.311Z,4.75
2022-10-16T09:33:17.264Z,5.68
2022-10-16T09:35:45.866Z,3.35
2022-10-16T09:38:24.934Z,3.17
2022-10-16T09:40:58.978Z,2.35
2022-10-16T09:43:33.715Z,2.58
2022-10-16T09:46:02.491Z,3.35
2022-10-16T09:48:33.300Z,3.58
2022-10-16T09:51:01.777Z,4.13
2022-10-16T09:53:40.646Z,2.20
2022-10-16T09:56:11.718Z,1.63
2022-10-16T09:58:44.476Z,3.08
2022-10-16T10:01:14.677Z,5.20
2022-10-16T10:03:43.031Z,4.07
2022-10-16T10:06:19.482Z,4.55
2022-10-16T10:08:59.569Z,3.83
2022-10-16T10:11:48.081Z,6.63
2022-10-16T10:14:19.940Z,4.70
2022-10-16T10:16:47.840Z,4.10
2022-10-16T10:19:19.020Z,5.57
2022-10-16T10:21:46.877Z,8.57
2022-10-16T10:24:16.774Z,7.45
2022-10-16T10:26:50.308Z,7.18
2022-10-16T10:29:24.109Z,8.88
2022-10-16T10:31:54.487Z,5.80
2022-10-16T10:34:30.628Z,5.85
2022-10-16T10:37:03.787Z,2.50
2022-10-16T10:39:36.308Z,4.25
2022-10-16T10:42:14.016Z,4.55
2022-10-16T10:44:57.460Z,8.57
2022-10-16T10:47:29.068Z,6.32
2022-10-16T10:50:01.092Z,5.15
2022-10-16T10:52:37.078Z,6.15
2022-10-16T10:55:11.974Z,7.25
2022-10-16T10:57:42.440Z,2.67
2022-10-16T11:00:18.178Z,4.57
2022-10-16T11:02:48.863Z,5.50
2022-10-16T11:05:31.633Z,4.43
2022-10-16T11:08:00.654Z,4.22
2022-10-16T11:10:30.875Z,10.18
2022-10-16T11:13:00.642Z,4.20
2022-10-16T11:15:30.303Z,7.97
2022-10-16T11:18:00.839Z,4.35
2022-10-16T11:20:29.905Z,6.82
2022-10-16T11:22:59.140Z,6.07
2022-10-16T11:25:29.357Z,3.10
2022-10-16T11:27:58.977Z,3.28
2022-10-16T11:30:27.600Z,4.13
2022-10-16T11:33:03.641Z,5.70
2022-10-16T11:35:39.332Z,4.10
2022-10-16T11:38:11.615Z,3.17
2022-10-16T11:40:41.994Z,6.05
2022-10-16T11:43:15.695Z,4.20
2022-10-16T11:45:44.536Z,4.40
2022-10-16T11:48:17.935Z,4.32
2022-10-16T11:50:47.673Z,4.40
2022-10-16T11:53:17.881Z,6.93
2022-10-16T11:55:47.496Z,5.90
2022-10-16T11:58:19.795Z,5.90
2022-10-16T12:00:48.525Z,5.88
2022-10-16T12:03:20.065Z,4.10
2022-10-16T12:05:57.628Z,6.10
2022-10-16T12:08:25.350Z,4.65
2022-10-16T12:10:56.141Z,5.75
2022-10-16T12:13:33.933Z,6.22
2022-10-16T12:16:09.192Z,5.93
2022-10-16T12:18:36.882Z,8.40
2022-10-16T12:21:07.477Z,6.88
2022-10-16T12:23:35.336Z,2.78
2022-10-16T12:26:04.380Z,4.57
2022-10-16T12:28:32.753Z,4.22
2022-10-16T12:31:02.239Z,4.95
2022-10-16T12:33:31.002Z,3.28
2022-10-16T12:35:58.864Z,3.30
2022-10-16T12:38:28.378Z,2.60
2022-10-16T12:41:00.839Z,3.90
2022-10-16T12:43:43.223Z,4.00
2022-10-16T12:46:39.439Z,2.13
2022-10-16T12:49:17.526Z,3.58
2022-10-16T12:51:45.309Z,3.30
2022-10-16T12:54:14.811Z,3.80
2022-10-16T12:56:47.250Z,6.38
2022-10-16T12:59:21.640Z,3.08
2022-10-16T13:01:58.836Z,3.92
2022-10-16T13:04:36.867Z,4.78
2022-10-16T13:07:13.573Z,3.63
2022-10-16T13:09:46.116Z,3.05
2022-10-16T13:12:28.494Z,3.35
2022-10-16T13:15:14.069Z,5.65
2022-10-16T13:17:44.615Z,3.72
2022-10-16T13:20:19.272Z,4.78
2022-10-16T13:22:55.248Z,3.97
2022-10-16T13:25:29.808Z,4.65
2022-10-16T13:27:59.005Z,2.38
2022-10-16T13:30:30.712Z,6.05
2022-10-16T13:33:01.024Z,3.38
2022-10-16T13:35:29.855Z,6.25
2022-10-16T13:38:15.357Z,4.78
2022-10-16T13:40:56.867Z,4.28
2022-10-16T13:43:27.108Z,3.25
2022-10-16T13:45:57.526Z,4.00
2022-10-16T13:48:25.347Z,4.38
2022-10-16T13:51:03.613Z,3.70
2022-10-16T13:53:32.949Z,6.43
2022-10-16T13:56:01.110Z,3.13
2022-10-16T13:58:28.884Z,2.38
2022-10-16T14:00:59.444Z,2.95
2022-10-16T14:03:27.305Z,3.63
2022-10-16T14:05:55.819Z,1.98
2022-10-16T14:08:24.316Z,3.33
2022-10-16T14:10:52.643Z,4.82
2022-10-16T14:13:21.344Z,3.78
2022-10-16T14:15:49.473Z,3.30
2022-10-16T14:18:21.729Z,1.70
2022-10-16T14:20:49.538Z,3.75
2022-10-16T14:23:27.181Z,3.92
2022-10-16T14:25:54.868Z,2.47
2022-10-16T14:28:23.754Z,3.28
2022-10-16T14:30:52.251Z,3.95
2022-10-16T14:33:26.184Z,4.60
2022-10-16T14:36:05.288Z,2.72
2022-10-16T14:38:33.100Z,3.60
2022-10-16T14:41:01.127Z,3.42
2022-10-16T14:43:34.239Z,3.22
2022-10-16T14:46:02.186Z,4.85
2022-10-16T14:48:31.220Z,4.55
2022-10-16T14:50:58.904Z,5.18
2022-10-16T14:53:26.627Z,4.32
2022-10-16T14:55:54.406Z,5.68
2022-10-16T14:58:22.948Z,5.68
2022-10-16T15:00:50.680Z,4.82
2022-10-16T15:03:18.425Z,3.25
2022-10-16T15:05:47.462Z,4.95
2022-10-16T15:08:15.611Z,9.27
2022-10-16T15:10:44.369Z,5.22
2022-10-16T15:13:14.492Z,9.10
2022-10-16T15:15:43.881Z,9.02
2022-10-16T15:18:11.568Z,9.45
2022-10-16T15:20:40.237Z,7.45
2022-10-16T15:23:14.877Z,6.72
2022-10-16T15:25:44.262Z,5.47
2022-10-16T15:28:12.245Z,4.38
2022-10-16T15:30:40.038Z,6.88
2022-10-16T15:33:11.993Z,7.28
2022-10-16T15:35:39.658Z,4.97
2022-10-16T15:38:09.787Z,6.05
2022-10-16T15:40:37.974Z,4.20
2022-10-16T15:43:05.648Z,4.43
2022-10-16T15:45:33.368Z,6.18
2022-10-16T15:48:01.329Z,7.38
2022-10-16T15:50:29.011Z,6.88
2022-10-16T15:52:56.685Z,11.10
2022-10-16T15:55:25.804Z,7.25
2022-10-16T15:57:53.487Z,15.10
2022-10-16T16:00:22.880Z,8.27
2022-10-16T16:02:54.048Z,6.63
2022-10-16T16:05:21.954Z,4.65
2022-10-16T16:07:49.780Z,8.90
2022-10-16T16:10:17.657Z,14.00
2022-10-16T16:12:50.352Z,5.38
2022-10-16T16:15:18.180Z,7.85
2022-10-16T16:17:45.972Z,4.90
2022-10-16T16:20:13.722Z,5.10
2022-10-16T16:22:41.452Z,7.00
2022-10-16T16:25:09.900Z,5.90
2022-10-16T16:27:39.294Z,3.92
2022-10-16T16:30:09.380Z,4.90
2022-10-16T16:32:37.145Z,3.10
2022-10-16T16:35:05.565Z,4.30
2022-10-16T16:37:33.337Z,6.18
2022-10-16T16:40:01.163Z,6.75
2022-10-16T16:42:28.921Z,4.63
2022-10-16T16:44:56.592Z,4.88
2022-10-16T16:47:25.816Z,4.32
2022-10-16T16:49:53.940Z,4.07
2022-10-16T16:52:21.616Z,2.50
2022-10-16T16:54:52.618Z,3.03
2022-10-16T16:57:20.835Z,5.22
2022-10-16T16:59:48.620Z,5.53
2022-10-16T17:02:16.482Z,3.88
2022-10-16T17:04:45.608Z,4.10
2022-10-16T17:07:13.867Z,4.00
2022-10-16T17:09:41.576Z,5.10
2022-10-16T17:12:09.262Z,4.10
2022-10-16T17:14:36.940Z,3.88
2022-10-16T17:17:06.651Z,3.15
2022-10-16T17:19:35.328Z,5.22
2022-10-16T17:22:04.323Z,3.13
2022-10-16T17:24:31.991Z,5.00
2022-10-16T17:26:59.662Z,3.15
2022-10-16T17:29:27.339Z,2.78
2022-10-16T17:31:56.973Z,2.60
2022-10-16T17:34:25.048Z,3.90
2022-10-16T17:36:53.429Z,3.47
2022-10-16T17:39:23.185Z,4.32
2022-10-16T17:41:50.834Z,2.85
2022-10-16T17:44:21.502Z,3.08
2022-10-16T17:46:49.744Z,2.40
2022-10-16T17:49:17.498Z,3.50
2022-10-16T17:51:45.241Z,3.42
2022-10-16T17:54:14.408Z,3.13
2022-10-16T17:56:43.504Z,3.28
2022-10-16T17:59:11.738Z,3.03
2022-10-16T18:01:41.397Z,1.85
2022-10-16T18:04:10.456Z,2.92
2022-10-16T18:06:38.205Z,2.40
2022-10-16T18:09:06.118Z,4.78
2022-10-16T18:11:33.939Z,3.13
2022-10-16T18:14:02.983Z,2.38
2022-10-16T18:16:31.021Z,2.30
2022-10-16T18:18:58.939Z,2.17
2022-10-16T18:21:28.082Z,2.47
2022-10-16T18:23:56.052Z,1.90
2022-10-16T18:26:23.906Z,3.13
2022-10-16T18:28:53.278Z,1.55
2022-10-16T18:31:22.923Z,2.20
2022-10-16T18:33:51.272Z,3.40
2022-10-16T18:36:20.202Z,4.45
2022-10-16T18:38:47.919Z,2.05
2022-10-16T18:41:15.655Z,1.92
2022-10-16T18:43:43.405Z,3.95
2022-10-16T18:46:12.200Z,2.35
2022-10-16T18:48:41.243Z,2.35
2022-10-16T18:51:10.433Z,2.30
2022-10-16T18:53:38.236Z,1.48
2022-10-16T18:56:06.302Z,2.92
2022-10-16T18:58:34.760Z,1.95
2022-10-16T19:01:06.196Z,1.58
2022-10-16T19:03:33.935Z,2.65
2022-10-16T19:06:03.515Z,2.03
2022-10-16T19:08:33.550Z,1.90
2022-10-16T19:11:04.313Z,3.25
2022-10-16T19:13:32.111Z,2.17
2022-10-16T19:16:09.432Z,3.50
2022-10-16T19:18:46.591Z,2.92
2022-10-16T19:21:15.701Z,2.88
2022-10-16T19:23:43.760Z,2.28
2022-10-16T19:26:12.786Z,2.08
2022-10-16T19:28:40.578Z,2.83
2022-10-16T19:31:11.392Z,2.92
2022-10-16T19:33:39.178Z,1.77
2022-10-16T19:36:10.718Z,1.92
2022-10-16T19:38:39.824Z,1.83
2022-10-16T19:41:08.690Z,2.05
2022-10-16T19:43:36.357Z,1.73
2022-10-16T19:46:05.466Z,2.15
2022-10-16T19:48:33.327Z,1.92
2022-10-16T19:51:00.978Z,2.03
2022-10-16T19:53:29.128Z,1.85
2022-10-16T19:55:58.187Z,1.50
2022-10-16T19:58:26.086Z,2.08
2022-10-16T20:00:54.573Z,2.00
2022-10-16T20:03:22.356Z,2.33
2022-10-16T20:05:53.674Z,2.10
2022-10-16T20:08:21.567Z,2.50
2022-10-16T20:10:50.225Z,2.10
2022-10-16T20:13:19.453Z,1.40
2022-10-16T20:15:47.291Z,3.63
2022-10-16T20:18:15.569Z,1.70
2022-10-16T20:20:44.262Z,1.30
2022-10-16T20:23:11.926Z,2.03
2022-10-16T20:25:40.240Z,1.90
2022-10-16T20:28:08.109Z,1.27
2022-10-16T20:30:37.372Z,2.42
2022-10-16T20:33:05.164Z,2.60
2022-10-16T20:35:36.739Z,1.05
2022-10-16T20:38:04.517Z,1.63
2022-10-16T20:40:32.215Z,1.63
2022-10-16T20:42:59.904Z,2.20
2022-10-16T20:45:27.575Z,1.98
2022-10-16T20:47:56.552Z,1.80
2022-10-16T20:50:24.304Z,2.55
2022-10-16T20:52:51.962Z,2.55
2022-10-16T20:55:19.647Z,1.75
2022-10-16T20:57:47.277Z,2.38
2022-10-16T21:00:16.128Z,1.10
2022-10-16T21:02:43.800Z,2.13
2022-10-16T21:05:12.823Z,1.75
2022-10-16T21:07:40.496Z,1.77
2022-10-16T21:10:08.760Z,2.85
2022-10-16T21:12:36.430Z,1.65
2022-10-16T21:15:19.197Z,2.38
2022-10-16T21:17:46.910Z,1.45
2022-10-16T21:20:15.940Z,1.88
2022-10-16T21:22:43.659Z,1.95
2022-10-16T21:25:11.423Z,1.30
2022-10-16T21:27:39.208Z,2.63
2022-10-16T21:30:08.284Z,2.10
2022-10-16T21:32:36.437Z,2.03
2022-10-16T21:35:04.473Z,1.65
2022-10-16T21:37:33.651Z,1.42
2022-10-16T21:40:01.294Z,1.80
2022-10-16T21:42:29.277Z,1.23
2022-10-16T21:44:57.123Z,1.48
2022-10-16T21:47:24.870Z,1.48
2022-10-16T21:49:52.580Z,1.35
2022-10-16T21:52:20.369Z,1.60
2022-10-16T21:54:49.347Z,1.98
2022-10-16T21:57:17.015Z,1.40
2022-10-16T21:59:44.674Z,1.33
2022-10-16T22:02:12.331Z,1.50
2022-10-16T22:04:39.994Z,1.20
2022-10-16T22:07:07.693Z,1.55
2022-10-16T22:09:35.378Z,1.50
2022-10-16T22:12:04.495Z,1.40
2022-10-16T22:14:32.152Z,1.58
2022-10-16T22:16:59.928Z,1.33
2022-10-16T22:19:27.975Z,2.90
2022-10-16T22:21:57.140Z,1.58
2022-10-16T22:24:25.013Z,1.30
2022-10-16T22:26:52.711Z,2.42
2022-10-16T22:29:22.010Z,1.40
2022-10-16T22:31:51.982Z,1.55
2022-10-16T22:34:19.705Z,2.17
2022-10-16T22:36:48.951Z,1.83
2022-10-16T22:39:16.660Z,1.42
2022-10-16T22:41:44.306Z,1.98
2022-10-16T22:44:12.916Z,1.65
2022-10-16T22:46:42.129Z,1.48
2022-10-16T22:49:09.811Z,1.63
2022-10-16T22:51:37.544Z,1.38
2022-10-16T22:54:05.392Z,1.42
2022-10-16T22:56:33.042Z,1.95
2022-10-16T22:59:00.875Z,1.33
2022-10-16T23:01:29.848Z,1.40
2022-10-16T23:03:59.426Z,2.15
2022-10-16T23:06:27.107Z,1.85
2022-10-16T23:08:55.057Z,1.45
2022-10-16T23:11:22.772Z,1.23
2022-10-16T23:13:50.488Z,2.72
2022-10-16T23:16:19.923Z,1.50
2022-10-16T23:18:47.647Z,1.30
2022-10-16T23:21:17.957Z,1.60
2022-10-16T23:23:45.723Z,1.40
2022-10-16T23:26:14.143Z,1.20
2022-10-16T23:28:41.979Z,1.30
2022-10-16T23:31:09.982Z,3.08
2022-10-16T23:33:38.033Z,2.55
2022-10-16T23:36:06.673Z,1.15
2022-10-16T23:38:35.683Z,1.30
2022-10-16T23:41:03.351Z,1.35
2022-10-16T23:43:31.018Z,1.83
2022-10-16T23:45:58.716Z,1.30
2022-10-16T23:48:26.365Z,1.27
2022-10-16T23:50:54.016Z,1.50
2022-10-16T23:53:21.662Z,1.48
2022-10-16T23:55:50.656Z,1.50
2022-10-16T23:58:18.364Z,1.45
